Аэропорт: Михайловка. Барнаул

ICAO: UNBB

METAR:
2021-10-23 01:00:00
UNBB 230100Z 20006MPS CAVOK 01/M04 Q1025 R24/CLRD66 NOSIG RMK QFE746
METAR:
2021-10-22 23:00:00
TAF UNBB 222300Z 2300/2324 20006G13MPS 9999 SCT040 TEMPO 2303/2309 20011G18MPS FM230900 21011G18MPS 9999 -SHRA BKN020CB BECMG 2315/2316 22008G14MPS